Newstead, New York
Current Conditions -  °F | °C
As of 2:54 PM on Thursday 23 Oct 2014 (Local Time) from KBUF Reporting Station
Few Clouds Few Clouds  
Wind Chill: 59°   Ceiling: Unl
Heat Index: 59°   Visibility: 10mi
Dew Point: 39°   Wind: 12mph
Humidity: 48%   Direction: 330°NNW
Pressure: 30.06"   Gusts: NA
Location:  43.0279°N, 78.5141°W
Report Text: KBUF 231854Z 33010KT 10SM FEW041 FEW060 FEW100 15/04 A3006 RMK AO2 SLP182 T01500039
Loading
Personal Weather Stations






























Interactive Weather Map
Tropical Storm Tracking
New forecast layout! Learn more

10-Day Weather Forecast

Advertisements
Track Severe Weather on mobile